Bluntzer, Texas
Current Conditions -  °F | °C
As of 3:51 AM on Thursday 29 Jan 2015 (Local Time) from KCRP Reporting Station
Few Clouds Few Clouds  
Wind Chill: 55°   Ceiling: Unl
Heat Index: 55°   Visibility: 10mi
Dew Point: 54°   Wind: 8mph
Humidity: 96%   Direction: 150°SSE
Pressure: 30.13"   Gusts: NA
Location:  27.7757°N, 97.7554°W
Report Text: KCRP 290951Z 15007KT 10SM FEW250 13/12 A3013 RMK AO2 SLP204 T01280122 $
Loading
Personal Weather Stations






























Interactive Weather Map New forecast layout! Learn more

10-Day Weather Forecast

Advertisements
Track Severe Weather on mobile